Time;durP1;ratioP1;P1;durP2;ratioP2;P2;SDS_P1;SDS_P2;PMS_P1;PMS_P2;Temp;Humidity;BMP_temperature;BMP_pressure;BME280_temperature;BME280_humidity;BME280_pressure;Samples;Min_cycle;Max_cycle;Signal;HPM_P1;HPM_P2
2023/05/04 00:01:45;;;;;;;;;;;;;;;;;;4994433;28;20655;-85
2023/05/04 00:04:31;;;;;;;;;;;;;;;;;;5000221;28;19918;-86
2023/05/04 00:07:18;;;;;;;;;;;;;;;;;;4988990;28;19918;-85
2023/05/04 00:10:04;;;;;;;;;;;;;;;;;;5000312;28;19918;-84
2023/05/04 00:12:51;;;;;;;;;;;;;;;;;;5000816;28;19928;-84
2023/05/04 00:15:37;;;;;;;;;;;;;;;;;;5003479;28;20576;-85
2023/05/04 00:18:24;;;;;;;;;;;;;;;;;;5007305;28;19933;-84
2023/05/04 00:21:10;;;;;;;;;;;;;;;;;;5000429;28;20352;-85
2023/05/04 00:23:57;;;;;;;;;;;;;;;;;;4994325;28;19914;-84
2023/05/04 00:26:44;;;;;;;;;;;;;;;;;;5000080;28;19917;-84
2023/05/04 00:29:31;;;;;;;;;;;;;;;;;;5010859;28;19924;-85
2023/05/04 00:32:17;;;;;;;;;;;;;;;;;;4995971;28;19944;-85
2023/05/04 00:35:04;;;;;;;;;;;;;;;;;;4994333;28;19922;-85
2023/05/04 00:37:50;;;;;;;;;;;;;;;;;;5002502;28;19921;-85
2023/05/04 00:40:36;;;;;;;;;;;;;;;;;;4989606;28;19933;-85
2023/05/04 00:43:23;;;;;;;;;;;;;;;;;;5003672;28;19925;-85
2023/05/04 00:46:09;;;;;;;;;;;;;;;;;;4999255;28;19918;-85
2023/05/04 00:48:58;;;;;;;;;;;;;;;;;;5010255;28;20271;-85
2023/05/04 00:51:46;;;;;;;;;;;;;;;;;;4994697;28;19939;-86
2023/05/04 00:54:32;;;;;;;;;;;;;;;;;;5003990;28;19921;-86
2023/05/04 00:57:19;;;;;;;;;;;;;;;;;;5002937;28;19925;-86
2023/05/04 01:00:07;;;;;;;;;;;;;;;;;;4995055;28;19918;-86
2023/05/04 01:02:53;;;;;;;;;;;;;;;;;;5000140;28;20543;-85
2023/05/04 01:05:40;;;;;;;;;;;;;;;;;;5003016;28;19922;-85
2023/05/04 01:08:26;;;;;;;;;;;;;;;;;;5001349;28;19936;-85
2023/05/04 01:11:14;;;;;;;;;;;;;;;;;;4998592;28;20395;-85
2023/05/04 01:14:01;;;;;;;;;;;;;;;;;;5001955;28;19940;-84
2023/05/04 01:16:47;;;;;;;;;;;;;;;;;;5003602;28;20347;-85
2023/05/04 01:19:34;;;;;;;;;;;;;;;;;;5002576;28;20436;-85
2023/05/04 01:22:20;;;;;;;;;;;;;;;;;;5003451;28;19921;-86
2023/05/04 01:25:07;;;;;;;;;;;;;;;;;;4987396;28;19918;-85
2023/05/04 01:27:53;;;;;;;;;;;;;;;;;;4990576;28;19924;-85
2023/05/04 01:30:40;;;;;;;;;;;;;;;;;;5001962;28;19922;-85
2023/05/04 01:33:26;;;;;;;;;;;;;;;;;;5001316;28;19917;-85
2023/05/04 01:36:13;;;;;;;;;;;;;;;;;;5010096;28;19926;-86
2023/05/04 01:38:59;;;;;;;;;;;;;;;;;;5002621;28;19952;-85
2023/05/04 01:41:46;;;;;;;;;;;;;;;;;;5005424;28;19917;-86
2023/05/04 01:44:32;;;;;;;;;;;;;;;;;;4992470;28;19921;-84
2023/05/04 01:47:19;;;;;;;;;;;;;;;;;;4991128;28;20644;-85
2023/05/04 01:50:05;;;;;;;;;;;;;;;;;;5002188;28;19918;-85
2023/05/04 01:52:52;;;;;;;;;;;;;;;;;;4997191;28;19917;-85
2023/05/04 01:55:38;;;;;;;;;;;;;;;;;;4996970;28;19921;-85
2023/05/04 01:58:25;;;;;;;;;;;;;;;;;;5005297;28;20336;-85
2023/05/04 02:01:11;;;;;;;;;;;;;;;;;;5005601;28;19924;-85
2023/05/04 02:03:58;;;;;;;;;;;;;;;;;;4992373;28;19928;-86
2023/05/04 02:06:44;;;;;;;;;;;;;;;;;;4995745;28;19914;-84
2023/05/04 02:09:31;;;;;;;;;;;;;;;;;;5001974;28;19932;-85
2023/05/04 02:12:17;;;;;;;;;;;;;;;;;;5006347;28;20220;-85
2023/05/04 02:15:04;;;;;;;;;;;;;;;;;;5005656;28;19914;-84
2023/05/04 02:17:50;;;;;;;;;;;;;;;;;;5004884;28;19922;-84
2023/05/04 02:20:37;;;;;;;;;;;;;;;;;;4990085;28;19917;-86
2023/05/04 02:23:23;;;;;;;;;;;;;;;;;;5003523;28;19917;-87
2023/05/04 02:26:10;;;;;;;;;;;;;;;;;;4993487;28;20409;-86
2023/05/04 02:28:56;;;;;;;;;;;;;;;;;;5004549;28;20281;-84
2023/05/04 02:31:43;;;;;;;;;;;;;;;;;;5009540;28;19917;-86
2023/05/04 02:34:30;;;;;;;;;;;;;;;;;;5008493;28;19924;-85
2023/05/04 02:37:17;;;;;;;;;;;;;;;;;;4993877;28;21392;-86
2023/05/04 02:40:03;;;;;;;;;;;;;;;;;;5004976;28;19918;-86
2023/05/04 02:42:50;;;;;;;;;;;;;;;;;;5007474;28;19945;-85
2023/05/04 02:45:36;;;;;;;;;;;;;;;;;;5011419;28;19925;-86
2023/05/04 02:48:23;;;;;;;;;;;;;;;;;;5007091;28;20387;-84
2023/05/04 02:51:09;;;;;;;;;;;;;;;;;;5006749;28;19922;-85
2023/05/04 02:53:56;;;;;;;;;;;;;;;;;;5002770;28;19924;-86
2023/05/04 02:56:42;;;;;;;;;;;;;;;;;;4998591;28;20429;-85
2023/05/04 02:59:28;;;;;;;;;;;;;;;;;;5008690;28;19920;-85
2023/05/04 03:02:15;;;;;;;;;;;;;;;;;;5006446;28;20445;-86
2023/05/04 03:05:01;;;;;;;;;;;;;;;;;;4989317;28;20598;-85
2023/05/04 03:07:48;;;;;;;;;;;;;;;;;;5006737;28;20622;-85
2023/05/04 03:10:35;;;;;;;;;;;;;;;;;;4994327;28;19922;-87
2023/05/04 03:13:21;;;;;;;;;;;;;;;;;;5010083;28;19917;-86
2023/05/04 03:16:08;;;;;;;;;;;;;;;;;;5010139;28;19925;-87
2023/05/04 03:18:54;;;;;;;;;;;;;;;;;;5011196;28;19935;-88
2023/05/04 03:21:41;;;;;;;;;;;;;;;;;;5008729;28;19928;-87
2023/05/04 03:24:28;;;;;;;;;;;;;;;;;;5002938;28;19913;-87
2023/05/04 03:27:14;;;;;;;;;;;;;;;;;;5007691;28;20545;-88
2023/05/04 03:30:01;;;;;;;;;;;;;;;;;;4988843;28;19918;-88
2023/05/04 03:32:47;;;;;;;;;;;;;;;;;;5001457;28;19925;-86
2023/05/04 03:35:34;;;;;;;;;;;;;;;;;;5008102;28;20326;-88
2023/05/04 03:38:20;;;;;;;;;;;;;;;;;;5016905;28;19925;-88
2023/05/04 03:41:07;;;;;;;;;;;;;;;;;;5005143;28;19928;-88
2023/05/04 03:43:53;;;;;;;;;;;;;;;;;;4991453;28;19914;-87
2023/05/04 03:46:40;;;;;;;;;;;;;;;;;;4990273;28;19918;-86
2023/05/04 03:49:26;;;;;;;;;;;;;;;;;;5011746;28;20509;-86
2023/05/04 03:52:13;;;;;;;;;;;;;;;;;;4994073;28;19922;-89
2023/05/04 03:54:59;;;;;;;;;;;;;;;;;;5000633;28;19924;-87
2023/05/04 03:57:45;;;;;;;;;;;;;;;;;;5004536;28;19931;-86
2023/05/04 04:00:32;;;;;;;;;;;;;;;;;;5001960;28;19923;-81
2023/05/04 04:03:19;;;;;;;;;;;;;;;;;;5007429;28;19918;-84
2023/05/04 04:06:08;;;;;;;;;;;;;;;;;;5020529;28;19928;-83
2023/05/04 04:08:54;;;;;;;;;;;;;;;;;;5020553;28;19977;-82
2023/05/04 04:11:41;;;;;;;;;;;;;;;;;;5005404;28;19924;-82
2023/05/04 04:14:27;;;;;;;;;;;;;;;;;;5004290;28;19917;-83
2023/05/04 04:17:14;;;;;;;;;;;;;;;;;;5002872;28;19933;-84
2023/05/04 04:20:00;;;;;;;;;;;;;;;;;;5002375;28;19945;-82
2023/05/04 04:22:47;;;;;;;;;;;;;;;;;;5009581;28;19932;-82
2023/05/04 04:25:33;;;;;;;;;;;;;;;;;;5004255;28;19917;-82
2023/05/04 04:28:21;;;;;;;;;;;;;;;;;;4987029;28;19928;-82
2023/05/04 04:31:08;;;;;;;;;;;;;;;;;;5001988;28;19914;-82
2023/05/04 04:33:54;;;;;;;;;;;;;;;;;;5005229;28;20505;-82
2023/05/04 04:36:41;;;;;;;;;;;;;;;;;;4999781;28;19940;-82
2023/05/04 04:39:27;;;;;;;;;;;;;;;;;;5008041;28;19917;-83
2023/05/04 04:42:14;;;;;;;;;;;;;;;;;;5009009;28;19917;-82
2023/05/04 04:45:04;;;;;;;;;;;;;;;;;;5005986;28;19914;-82
2023/05/04 04:47:50;;;;;;;;;;;;;;;;;;4998642;28;19918;-83
2023/05/04 04:50:37;;;;;;;;;;;;;;;;;;5007631;28;20385;-82
2023/05/04 04:53:23;;;;;;;;;;;;;;;;;;5003852;28;19913;-82
2023/05/04 04:56:10;;;;;;;;;;;;;;;;;;5012954;28;19924;-82
2023/05/04 04:58:56;;;;;;;;;;;;;;;;;;5004033;28;20232;-83
2023/05/04 05:01:43;;;;;;;;;;;;;;;;;;4999358;28;19917;-82
2023/05/04 05:04:30;;;;;;;;;;;;;;;;;;5003597;28;19968;-81
2023/05/04 05:07:17;;;;;;;;;;;;;;;;;;4998996;28;19925;-82
2023/05/04 05:10:03;;;;;;;;;;;;;;;;;;4992665;28;19913;-82
2023/05/04 05:12:50;;;;;;;;;;;;;;;;;;5002546;28;19917;-82
2023/05/04 05:15:36;;;;;;;;;;;;;;;;;;4996460;28;20336;-82
2023/05/04 05:18:23;;;;;;;;;;;;;;;;;;5001288;28;19936;-82
2023/05/04 05:21:10;;;;;;;;;;;;;;;;;;5005268;28;20399;-82
2023/05/04 05:23:56;;;;;;;;;;;;;;;;;;5003297;28;19917;-81
2023/05/04 05:26:43;;;;;;;;;;;;;;;;;;4998235;28;19917;-81
2023/05/04 05:29:29;;;;;;;;;;;;;;;;;;5008765;28;19962;-81
2023/05/04 05:32:16;;;;;;;;;;;;;;;;;;5005914;28;19913;-81
2023/05/04 05:35:03;;;;;;;;;;;;;;;;;;4999216;28;19924;-81
2023/05/04 05:37:49;;;;;;;;;;;;;;;;;;4998490;28;19932;-81
2023/05/04 05:40:36;;;;;;;;;;;;;;;;;;5011332;28;20369;-82
2023/05/04 05:43:22;;;;;;;;;;;;;;;;;;4998205;28;19932;-81
2023/05/04 05:46:09;;;;;;;;;;;;;;;;;;5002116;28;19928;-81
2023/05/04 05:48:55;;;;;;;;;;;;;;;;;;5001136;28;19925;-81
2023/05/04 05:51:42;;;;;;;;;;;;;;;;;;5000172;28;20293;-83
2023/05/04 05:54:28;;;;;;;;;;;;;;;;;;5000009;28;19918;-80
2023/05/04 05:57:15;;;;;;;;;;;;;;;;;;5005265;28;19926;-83
2023/05/04 06:00:01;;;;;;;;;;;;;;;;;;5003248;28;19920;-83
2023/05/04 06:02:48;;;;;;;;;;;;;;;;;;4999254;28;19917;-81
2023/05/04 06:05:34;;;;;;;;;;;;;;;;;;4996414;28;20417;-81
2023/05/04 06:08:21;;;;;;;;;;;;;;;;;;4996914;28;19936;-82
2023/05/04 06:11:08;;;;;;;;;;;;;;;;;;5006701;28;19913;-82
2023/05/04 06:13:54;;;;;;;;;;;;;;;;;;4996802;28;19925;-82
2023/05/04 06:16:41;;;;;;;;;;;;;;;;;;4998777;28;19926;-82
2023/05/04 06:19:27;;;;;;;;;;;;;;;;;;5004531;28;20292;-82
2023/05/04 06:22:14;;;;;;;;;;;;;;;;;;5005780;28;19918;-82
2023/05/04 06:25:00;;;;;;;;;;;;;;;;;;5005152;28;19914;-82
2023/05/04 06:27:47;;;;;;;;;;;;;;;;;;4983018;28;19918;-82
2023/05/04 06:30:33;;;;;;;;;;;;;;;;;;4998076;28;20468;-82
2023/05/04 06:33:20;;;;;;;;;;;;;;;;;;4998086;28;19995;-84
2023/05/04 06:36:06;;;;;;;;;;;;;;;;;;5007306;28;19944;-82
2023/05/04 06:38:54;;;;;;;;;;;;;;;;;;5012497;28;20377;-82
2023/05/04 06:41:41;;;;;;;;;;;;;;;;;;4999236;28;19914;-81
2023/05/04 06:44:27;;;;;;;;;;;;;;;;;;5004862;28;19934;-82
2023/05/04 06:47:14;;;;;;;;;;;;;;;;;;4995620;28;19913;-82
2023/05/04 06:50:01;;;;;;;;;;;;;;;;;;5002606;28;19940;-82
2023/05/04 06:52:47;;;;;;;;;;;;;;;;;;5002947;28;20421;-82
2023/05/04 06:55:34;;;;;;;;;;;;;;;;;;5000094;28;19913;-81
2023/05/04 06:58:20;;;;;;;;;;;;;;;;;;5000526;28;19929;-81
2023/05/04 07:01:10;;;;;;;;;;;;;;;;;;5000387;28;19924;-81
2023/05/04 07:03:57;;;;;;;;;;;;;;;;;;5010360;28;19925;-82
2023/05/04 07:06:44;;;;;;;;;;;;;;;;;;5002814;28;20656;-82
2023/05/04 07:09:30;;;;;;;;;;;;;;;;;;5002976;28;20701;-82
2023/05/04 07:12:17;;;;;;;;;;;;;;;;;;5002307;28;19925;-82
2023/05/04 07:15:05;;;;;;;;;;;;;;;;;;5005859;28;19918;-82
2023/05/04 07:17:52;;;;;;;;;;;;;;;;;;5003574;28;19929;-82
2023/05/04 07:20:38;;;;;;;;;;;;;;;;;;4985351;28;19932;-83
2023/05/04 07:23:24;;;;;;;;;;;;;;;;;;4992653;28;19925;-84
2023/05/04 07:26:11;;;;;;;;;;;;;;;;;;4976234;28;19973;-83
2023/05/04 07:28:57;;;;;;;;;;;;;;;;;;4991273;28;19917;-83
2023/05/04 07:31:44;;;;;;;;;;;;;;;;;;4988027;28;19925;-83
2023/05/04 07:34:30;;;;;;;;;;;;;;;;;;4975641;28;19929;-84
2023/05/04 07:37:17;;;;;;;;;;;;;;;;;;4984554;28;20020;-83
2023/05/04 07:40:07;;;;;;;;;;;;;;;;;;4977410;28;19914;-83
2023/05/04 07:42:53;;;;;;;;;;;;;;;;;;4985533;28;19922;-83
2023/05/04 07:45:40;;;;;;;;;;;;;;;;;;4988449;28;20302;-83
2023/05/04 07:48:26;;;;;;;;;;;;;;;;;;4990948;28;19921;-82
2023/05/04 07:51:13;;;;;;;;;;;;;;;;;;4983818;28;19921;-82
2023/05/04 07:54:00;;;;;;;;;;;;;;;;;;4986194;28;19918;-82
2023/05/04 07:56:46;;;;;;;;;;;;;;;;;;4989767;28;19925;-83
2023/05/04 07:59:33;;;;;;;;;;;;;;;;;;4974588;28;20570;-82
2023/05/04 08:02:19;;;;;;;;;;;;;;;;;;4980978;28;19941;-82
2023/05/04 08:05:06;;;;;;;;;;;;;;;;;;4978964;28;19913;-82
2023/05/04 08:07:52;;;;;;;;;;;;;;;;;;4971708;28;20030;-82
2023/05/04 08:10:39;;;;;;;;;;;;;;;;;;4974665;28;19914;-82
2023/05/04 08:13:26;;;;;;;;;;;;;;;;;;4950056;28;19914;-82
2023/05/04 08:16:12;;;;;;;;;;;;;;;;;;4960941;28;19919;-82
2023/05/04 08:19:00;;;;;;;;;;;;;;;;;;4966816;28;19932;-82
2023/05/04 08:21:47;;;;;;;;;;;;;;;;;;4972807;28;19925;-82
2023/05/04 08:24:33;;;;;;;;;;;;;;;;;;4965402;28;20306;-81
2023/05/04 08:27:20;;;;;;;;;;;;;;;;;;4961242;28;19926;-82
2023/05/04 08:30:07;;;;;;;;;;;;;;;;;;4967904;28;20338;-82
2023/05/04 08:32:54;;;;;;;;;;;;;;;;;;4976075;28;19941;-82
2023/05/04 08:35:41;;;;;;;;;;;;;;;;;;4972316;28;19922;-82
2023/05/04 08:38:28;;;;;;;;;;;;;;;;;;4971283;28;20425;-82
2023/05/04 08:41:15;;;;;;;;;;;;;;;;;;4971651;28;19928;-82
2023/05/04 08:44:02;;;;;;;;;;;;;;;;;;4982072;28;19925;-82
2023/05/04 08:46:51;;;;;;;;;;;;;;;;;;4996264;28;19972;-83
2023/05/04 08:49:37;;;;;;;;;;;;;;;;;;4993359;28;19925;-82
2023/05/04 08:52:24;;;;;;;;;;;;;;;;;;4983282;28;19922;-82
2023/05/04 08:55:10;;;;;;;;;;;;;;;;;;4985505;28;19922;-81
2023/05/04 08:57:57;;;;;;;;;;;;;;;;;;4988867;28;19949;-81
2023/05/04 09:00:43;;;;;;;;;;;;;;;;;;4980379;28;20394;-81
2023/05/04 09:03:30;;;;;;;;;;;;;;;;;;4981068;28;19929;-81
2023/05/04 09:06:16;;;;;;;;;;;;;;;;;;4977266;28;19931;-81
2023/05/04 09:09:03;;;;;;;;;;;;;;;;;;4955249;28;19914;-81
2023/05/04 09:11:49;;;;;;;;;;;;;;;;;;4969038;28;20089;-81
2023/05/04 09:14:36;;;;;;;;;;;;;;;;;;4977630;28;19917;-81
2023/05/04 09:17:28;;;;;;;;;;;;;;;;;;4977603;28;20495;-82
2023/05/04 09:20:14;;;;;;;;;;;;;;;;;;4982086;28;19933;-82
2023/05/04 09:23:02;;;;;;;;;;;;;;;;;;4984225;28;20174;-81
2023/05/04 09:25:48;;;;;;;;;;;;;;;;;;4984154;28;19924;-81
2023/05/04 09:28:35;;;;;;;;;;;;;;;;;;4982869;28;19918;-81
2023/05/04 09:31:22;;;;;;;;;;;;;;;;;;4964883;28;19929;-81
2023/05/04 09:34:08;;;;;;;;;;;;;;;;;;4982833;28;20441;-82
2023/05/04 09:36:55;;;;;;;;;;;;;;;;;;4984420;28;19986;-82
2023/05/04 09:39:42;;;;;;;;;;;;;;;;;;4983428;28;19930;-81
2023/05/04 09:42:28;;;;;;;;;;;;;;;;;;4972068;28;19917;-81
2023/05/04 09:45:15;;;;;;;;;;;;;;;;;;4966345;28;19941;-81
2023/05/04 09:48:01;;;;;;;;;;;;;;;;;;4962112;28;20403;-81
2023/05/04 09:50:48;;;;;;;;;;;;;;;;;;4961922;28;19922;-81
2023/05/04 09:53:35;;;;;;;;;;;;;;;;;;4970675;28;19933;-81
2023/05/04 09:56:22;;;;;;;;;;;;;;;;;;4984396;28;19926;-82
2023/05/04 09:59:08;;;;;;;;;;;;;;;;;;4977629;28;19928;-82
2023/05/04 10:01:55;;;;;;;;;;;;;;;;;;4985034;28;19922;-82
2023/05/04 10:04:42;;;;;;;;;;;;;;;;;;4980330;28;19917;-81
2023/05/04 10:07:28;;;;;;;;;;;;;;;;;;4964343;28;19925;-82
2023/05/04 10:10:15;;;;;;;;;;;;;;;;;;4981685;28;19918;-82
2023/05/04 10:13:01;;;;;;;;;;;;;;;;;;4979523;28;20431;-82
2023/05/04 10:15:48;;;;;;;;;;;;;;;;;;4981881;28;19921;-82
2023/05/04 10:18:35;;;;;;;;;;;;;;;;;;4989583;28;19930;-82
2023/05/04 10:21:21;;;;;;;;;;;;;;;;;;5002801;28;19925;-82
2023/05/04 10:24:08;;;;;;;;;;;;;;;;;;5002685;28;19919;-82
2023/05/04 10:26:58;;;;;;;;;;;;;;;;;;5004864;28;19918;-82
2023/05/04 10:29:44;;;;;;;;;;;;;;;;;;5003242;28;19917;-82
2023/05/04 10:32:37;;;;;;;;;;;;;;;;;;4991736;28;20488;-81
2023/05/04 10:35:23;;;;;;;;;;;;;;;;;;4990905;28;19937;-82
2023/05/04 10:38:11;;;;;;;;;;;;;;;;;;4981193;28;19937;-82
2023/05/04 10:40:58;;;;;;;;;;;;;;;;;;4980902;28;19914;-82
2023/05/04 10:43:49;;;;;;;;;;;;;;;;;;4992340;28;20346;-82
2023/05/04 10:46:36;;;;;;;;;;;;;;;;;;5004169;28;20278;-82
2023/05/04 10:49:22;;;;;;;;;;;;;;;;;;4997999;28;19922;-81
2023/05/04 10:52:09;;;;;;;;;;;;;;;;;;4994900;28;19944;-82
2023/05/04 10:54:55;;;;;;;;;;;;;;;;;;5007505;28;20299;-81
2023/05/04 10:57:42;;;;;;;;;;;;;;;;;;5006647;28;19917;-81
2023/05/04 11:00:28;;;;;;;;;;;;;;;;;;4999185;28;19929;-80
2023/05/04 11:03:15;;;;;;;;;;;;;;;;;;5002753;28;19917;-82
2023/05/04 11:06:01;;;;;;;;;;;;;;;;;;5006696;28;20268;-82
2023/05/04 11:08:48;;;;;;;;;;;;;;;;;;4996035;28;19918;-82
2023/05/04 11:11:34;;;;;;;;;;;;;;;;;;4993848;28;19925;-81
2023/05/04 11:14:21;;;;;;;;;;;;;;;;;;5007612;28;19919;-82
2023/05/04 11:17:07;;;;;;;;;;;;;;;;;;5004921;28;20327;-82
2023/05/04 11:19:54;;;;;;;;;;;;;;;;;;4998351;28;20776;-82
2023/05/04 11:22:40;;;;;;;;;;;;;;;;;;5008046;28;19917;-82
2023/05/04 11:25:27;;;;;;;;;;;;;;;;;;5010063;28;19917;-81
2023/05/04 11:28:14;;;;;;;;;;;;;;;;;;5010085;28;19922;-81
2023/05/04 11:31:01;;;;;;;;;;;;;;;;;;5001678;28;19929;-82
2023/05/04 11:33:47;;;;;;;;;;;;;;;;;;4997136;28;20389;-82
2023/05/04 11:36:33;;;;;;;;;;;;;;;;;;5004476;28;19936;-82
2023/05/04 11:39:20;;;;;;;;;;;;;;;;;;4998382;28;20030;-82
2023/05/04 11:42:06;;;;;;;;;;;;;;;;;;4987671;28;19926;-82
2023/05/04 11:44:53;;;;;;;;;;;;;;;;;;5001684;28;19918;-82
2023/05/04 11:47:39;;;;;;;;;;;;;;;;;;4983118;28;19922;-82
2023/05/04 11:50:26;;;;;;;;;;;;;;;;;;4999496;28;19928;-83
2023/05/04 11:53:13;;;;;;;;;;;;;;;;;;5006012;28;19913;-82
2023/05/04 11:55:59;;;;;;;;;;;;;;;;;;5005620;28;19917;-81
2023/05/04 11:58:46;;;;;;;;;;;;;;;;;;4989254;28;19957;-82
2023/05/04 12:01:32;;;;;;;;;;;;;;;;;;4983336;28;19924;-82
2023/05/04 12:04:19;;;;;;;;;;;;;;;;;;4996169;28;19918;-82
2023/05/04 12:07:05;;;;;;;;;;;;;;;;;;4996729;28;19918;-82
2023/05/04 12:09:51;;;;;;;;;;;;;;;;;;5007579;28;19920;-83
2023/05/04 12:12:38;;;;;;;;;;;;;;;;;;4982448;28;19925;-83
2023/05/04 12:15:24;;;;;;;;;;;;;;;;;;4988947;28;19917;-83
2023/05/04 12:18:11;;;;;;;;;;;;;;;;;;5007863;28;19932;-83
2023/05/04 12:20:57;;;;;;;;;;;;;;;;;;5005215;28;19917;-83
2023/05/04 12:23:44;;;;;;;;;;;;;;;;;;5001436;28;19953;-84
2023/05/04 12:26:31;;;;;;;;;;;;;;;;;;4993938;28;19925;-82
2023/05/04 12:29:17;;;;;;;;;;;;;;;;;;4995631;28;19926;-82
2023/05/04 12:32:03;;;;;;;;;;;;;;;;;;5006343;28;20353;-83
2023/05/04 12:34:50;;;;;;;;;;;;;;;;;;4985333;28;19917;-82
2023/05/04 12:37:37;;;;;;;;;;;;;;;;;;4992750;28;19930;-83
2023/05/04 12:40:25;;;;;;;;;;;;;;;;;;4979370;28;19941;-82
2023/05/04 12:43:11;;;;;;;;;;;;;;;;;;4981942;28;20559;-82
2023/05/04 12:45:58;;;;;;;;;;;;;;;;;;4983510;28;19925;-82
2023/05/04 12:48:44;;;;;;;;;;;;;;;;;;4986569;28;19947;-83
2023/05/04 12:51:31;;;;;;;;;;;;;;;;;;4996955;28;19925;-83
2023/05/04 12:54:17;;;;;;;;;;;;;;;;;;4995409;28;19925;-82
2023/05/04 12:57:04;;;;;;;;;;;;;;;;;;5001766;28;19914;-82
2023/05/04 12:59:50;;;;;;;;;;;;;;;;;;4997675;28;20301;-81
2023/05/04 13:02:37;;;;;;;;;;;;;;;;;;5011433;28;19917;-82
2023/05/04 13:05:24;;;;;;;;;;;;;;;;;;5002775;28;19922;-82
2023/05/04 13:08:10;;;;;;;;;;;;;;;;;;4988962;28;19948;-81
2023/05/04 13:10:56;;;;;;;;;;;;;;;;;;5001797;28;20421;-82
2023/05/04 13:13:43;;;;;;;;;;;;;;;;;;5003726;28;20013;-81
2023/05/04 13:16:29;;;;;;;;;;;;;;;;;;4993355;28;20345;-82
2023/05/04 13:19:16;;;;;;;;;;;;;;;;;;5001241;28;19930;-82
2023/05/04 13:22:02;;;;;;;;;;;;;;;;;;4995703;28;19929;-82
2023/05/04 13:24:49;;;;;;;;;;;;;;;;;;4995455;28;20301;-84
2023/05/04 13:27:36;;;;;;;;;;;;;;;;;;5004271;28;20059;-81
2023/05/04 13:30:28;;;;;;;;;;;;;;;;;;4998430;28;19928;-81
2023/05/04 13:33:15;;;;;;;;;;;;;;;;;;5001509;28;19921;-81
2023/05/04 13:36:01;;;;;;;;;;;;;;;;;;4998249;28;19926;-82
2023/05/04 13:38:48;;;;;;;;;;;;;;;;;;4993710;28;20044;-81
2023/05/04 13:41:35;;;;;;;;;;;;;;;;;;4997926;28;19984;-82
2023/05/04 13:44:21;;;;;;;;;;;;;;;;;;4990230;28;20443;-81
2023/05/04 13:47:08;;;;;;;;;;;;;;;;;;4992290;28;19927;-82
2023/05/04 13:49:54;;;;;;;;;;;;;;;;;;4997120;28;19924;-83
2023/05/04 13:52:41;;;;;;;;;;;;;;;;;;4986216;28;19932;-82
2023/05/04 13:55:27;;;;;;;;;;;;;;;;;;4985986;28;20292;-81
2023/05/04 13:58:14;;;;;;;;;;;;;;;;;;4985238;28;19932;-87
2023/05/04 14:01:00;;;;;;;;;;;;;;;;;;4998680;28;19922;-80
2023/05/04 14:03:47;;;;;;;;;;;;;;;;;;4999255;28;19914;-81
2023/05/04 14:06:33;;;;;;;;;;;;;;;;;;5002694;28;19944;-81
2023/05/04 14:09:20;;;;;;;;;;;;;;;;;;5011598;28;20572;-81
2023/05/04 14:12:06;;;;;;;;;;;;;;;;;;4996724;28;19921;-83
2023/05/04 14:14:53;;;;;;;;;;;;;;;;;;5008057;28;19940;-82
2023/05/04 14:17:39;;;;;;;;;;;;;;;;;;4995888;28;19922;-83
2023/05/04 14:20:26;;;;;;;;;;;;;;;;;;4993873;28;19952;-82
2023/05/04 14:23:12;;;;;;;;;;;;;;;;;;4999945;28;19924;-82
2023/05/04 14:25:59;;;;;;;;;;;;;;;;;;4990442;28;20396;-81
2023/05/04 14:28:45;;;;;;;;;;;;;;;;;;4997997;28;19921;-82
2023/05/04 14:31:32;;;;;;;;;;;;;;;;;;4988817;28;20301;-83
2023/05/04 14:34:18;;;;;;;;;;;;;;;;;;5000984;28;19924;-84
2023/05/04 14:37:05;;;;;;;;;;;;;;;;;;4994345;28;19921;-82
2023/05/04 14:39:51;;;;;;;;;;;;;;;;;;5005655;28;19929;-83
2023/05/04 14:42:38;;;;;;;;;;;;;;;;;;5002523;28;19917;-83
2023/05/04 14:45:24;;;;;;;;;;;;;;;;;;4978958;28;19922;-82
2023/05/04 14:48:11;;;;;;;;;;;;;;;;;;4992436;28;20072;-83
2023/05/04 14:50:57;;;;;;;;;;;;;;;;;;5001144;28;19921;-81
2023/05/04 14:53:46;;;;;;;;;;;;;;;;;;5010532;28;20285;-84
2023/05/04 14:56:33;;;;;;;;;;;;;;;;;;4994823;28;19948;-83
2023/05/04 14:59:19;;;;;;;;;;;;;;;;;;4976796;28;25713;-82
2023/05/04 15:02:06;;;;;;;;;;;;;;;;;;4979938;28;20685;-81
2023/05/04 15:04:53;;;;;;;;;;;;;;;;;;4994358;28;20381;-81
2023/05/04 15:07:39;;;;;;;;;;;;;;;;;;4996407;28;19921;-81
2023/05/04 15:10:26;;;;;;;;;;;;;;;;;;4993232;28;19918;-82
2023/05/04 15:13:14;;;;;;;;;;;;;;;;;;4978412;28;19973;-82
2023/05/04 15:16:01;;;;;;;;;;;;;;;;;;4968300;28;19944;-83
2023/05/04 15:18:47;;;;;;;;;;;;;;;;;;4983166;28;20305;-80
2023/05/04 15:21:33;;;;;;;;;;;;;;;;;;4965872;28;19918;-81
2023/05/04 15:24:20;;;;;;;;;;;;;;;;;;4964988;28;19918;-82
2023/05/04 15:27:06;;;;;;;;;;;;;;;;;;4967238;28;19929;-80
2023/05/04 15:29:53;;;;;;;;;;;;;;;;;;4956989;28;19918;-82
2023/05/04 15:32:40;;;;;;;;;;;;;;;;;;4967206;28;19922;-82
2023/05/04 15:35:26;;;;;;;;;;;;;;;;;;4966055;28;19921;-84
2023/05/04 15:38:13;;;;;;;;;;;;;;;;;;4984191;28;19926;-84
2023/05/04 15:40:59;;;;;;;;;;;;;;;;;;4988012;28;19922;-84
2023/05/04 15:43:46;;;;;;;;;;;;;;;;;;4977166;28;19928;-83
2023/05/04 15:46:32;;;;;;;;;;;;;;;;;;4962043;28;19957;-83
2023/05/04 15:49:19;;;;;;;;;;;;;;;;;;4973681;28;19918;-84
2023/05/04 15:52:06;;;;;;;;;;;;;;;;;;4996916;28;19924;-83
2023/05/04 15:54:52;;;;;;;;;;;;;;;;;;4983124;28;20408;-84
2023/05/04 15:57:39;;;;;;;;;;;;;;;;;;4976660;28;19918;-81
2023/05/04 16:00:26;;;;;;;;;;;;;;;;;;4972526;28;19921;-82
2023/05/04 16:03:13;;;;;;;;;;;;;;;;;;4985569;28;20403;-81
2023/05/04 16:05:59;;;;;;;;;;;;;;;;;;4984782;28;19917;-82
2023/05/04 16:08:46;;;;;;;;;;;;;;;;;;4986302;28;19913;-81
2023/05/04 16:11:32;;;;;;;;;;;;;;;;;;4981915;28;19921;-81
2023/05/04 16:14:19;;;;;;;;;;;;;;;;;;4987715;28;20502;-81
2023/05/04 16:17:06;;;;;;;;;;;;;;;;;;4984250;28;20819;-82
2023/05/04 16:19:52;;;;;;;;;;;;;;;;;;4990033;28;19934;-81
2023/05/04 16:22:39;;;;;;;;;;;;;;;;;;5004285;28;20296;-81
2023/05/04 16:25:25;;;;;;;;;;;;;;;;;;5007048;28;19917;-82
2023/05/04 16:28:12;;;;;;;;;;;;;;;;;;5005020;28;19933;-81
2023/05/04 16:30:58;;;;;;;;;;;;;;;;;;5005202;28;19927;-81
2023/05/04 16:33:46;;;;;;;;;;;;;;;;;;5011169;28;19917;-81
2023/05/04 16:36:33;;;;;;;;;;;;;;;;;;5005072;28;19924;-81
2023/05/04 16:39:19;;;;;;;;;;;;;;;;;;5008271;28;19929;-82
2023/05/04 16:42:06;;;;;;;;;;;;;;;;;;4995262;28;20325;-81
2023/05/04 16:44:52;;;;;;;;;;;;;;;;;;5001258;28;19918;-82
2023/05/04 16:47:39;;;;;;;;;;;;;;;;;;4985178;28;19921;-81
2023/05/04 16:50:26;;;;;;;;;;;;;;;;;;4984070;28;19923;-82
2023/05/04 16:53:12;;;;;;;;;;;;;;;;;;4992795;28;19933;-82
2023/05/04 16:55:59;;;;;;;;;;;;;;;;;;4988166;28;19914;-81
2023/05/04 16:58:45;;;;;;;;;;;;;;;;;;5006191;28;19921;-80
2023/05/04 17:01:32;;;;;;;;;;;;;;;;;;4989319;28;19932;-85
2023/05/04 17:04:18;;;;;;;;;;;;;;;;;;4996453;28;19921;-81
2023/05/04 17:07:05;;;;;;;;;;;;;;;;;;4996523;28;19941;-81
2023/05/04 17:09:51;;;;;;;;;;;;;;;;;;4992290;28;19928;-81
2023/05/04 17:12:38;;;;;;;;;;;;;;;;;;5003506;28;20623;-81
2023/05/04 17:15:24;;;;;;;;;;;;;;;;;;4993896;28;19997;-81
2023/05/04 17:18:11;;;;;;;;;;;;;;;;;;4998995;28;19929;-80
2023/05/04 17:20:57;;;;;;;;;;;;;;;;;;5011537;28;19928;-81
2023/05/04 17:23:44;;;;;;;;;;;;;;;;;;5003495;28;20300;-82
2023/05/04 17:26:30;;;;;;;;;;;;;;;;;;4998202;28;19922;-82
2023/05/04 17:29:17;;;;;;;;;;;;;;;;;;4996261;28;20096;-83
2023/05/04 17:32:03;;;;;;;;;;;;;;;;;;5001852;28;19917;-81
2023/05/04 17:34:50;;;;;;;;;;;;;;;;;;4992313;28;19918;-83
2023/05/04 17:37:36;;;;;;;;;;;;;;;;;;5002332;28;19925;-83
2023/05/04 17:40:23;;;;;;;;;;;;;;;;;;4990822;28;19925;-84
2023/05/04 17:43:09;;;;;;;;;;;;;;;;;;4996445;28;19921;-85
2023/05/04 17:45:55;;;;;;;;;;;;;;;;;;4996878;28;19959;-85
2023/05/04 17:48:43;;;;;;;;;;;;;;;;;;5001930;28;19944;-84
2023/05/04 17:51:30;;;;;;;;;;;;;;;;;;5003589;28;19931;-83
2023/05/04 17:54:17;;;;;;;;;;;;;;;;;;5008989;28;20324;-83
2023/05/04 17:57:03;;;;;;;;;;;;;;;;;;5000394;28;19932;-81
2023/05/04 17:59:50;;;;;;;;;;;;;;;;;;5006358;28;19929;-82
2023/05/04 18:02:36;;;;;;;;;;;;;;;;;;5007059;28;19917;-81
2023/05/04 18:05:24;;;;;;;;;;;;;;;;;;4999201;28;19925;-83
2023/05/04 18:08:11;;;;;;;;;;;;;;;;;;5005055;28;19928;-82
2023/05/04 18:10:57;;;;;;;;;;;;;;;;;;5003882;28;19926;-81
2023/05/04 18:13:44;;;;;;;;;;;;;;;;;;4999044;28;19918;-82
2023/05/04 18:16:34;;;;;;;;;;;;;;;;;;5000949;28;19964;-83
2023/05/04 18:19:23;;;;;;;;;;;;;;;;;;5001654;28;19929;-84
2023/05/04 18:22:10;;;;;;;;;;;;;;;;;;5001556;28;19936;-83
2023/05/04 18:24:56;;;;;;;;;;;;;;;;;;5002151;28;19918;-82
2023/05/04 18:27:42;;;;;;;;;;;;;;;;;;5000104;28;20042;-83
2023/05/04 18:30:29;;;;;;;;;;;;;;;;;;4987791;28;19937;-83
2023/05/04 18:33:16;;;;;;;;;;;;;;;;;;4981558;28;19918;-82
2023/05/04 18:36:02;;;;;;;;;;;;;;;;;;4970651;28;20469;-83
2023/05/04 18:38:52;;;;;;;;;;;;;;;;;;4975775;28;20435;-82
2023/05/04 18:41:39;;;;;;;;;;;;;;;;;;5003387;28;19939;-83
2023/05/04 18:44:25;;;;;;;;;;;;;;;;;;5001990;28;19918;-82
2023/05/04 18:47:12;;;;;;;;;;;;;;;;;;4998307;28;20336;-83
2023/05/04 18:49:59;;;;;;;;;;;;;;;;;;5002846;28;19917;-82
2023/05/04 18:52:45;;;;;;;;;;;;;;;;;;5009184;28;19933;-83
2023/05/04 18:55:32;;;;;;;;;;;;;;;;;;4992609;28;20021;-82
2023/05/04 18:58:18;;;;;;;;;;;;;;;;;;5002342;28;20404;-82